Time;durP1;ratioP1;P1;durP2;ratioP2;P2;SDS_P1;SDS_P2;PMS_P1;PMS_P2;Temp;Humidity;BMP_temperature;BMP_pressure;BME280_temperature;BME280_humidity;BME280_pressure;Samples;Min_cycle;Max_cycle;Signal;HPM_P1;HPM_P2
2022/02/06 00:00:46;;;;;;;19.27;10.60;;;;;;;3.02;67.31;99891.03;5091429;28;20028;-48
2022/02/06 00:03:13;;;;;;;25.85;10.93;;;;;;;2.94;67.86;99886.47;5092740;28;20165;-48
2022/02/06 00:05:39;;;;;;;25.40;10.10;;;;;;;2.98;68.34;99886.09;5092651;28;20027;-49
2022/02/06 00:08:10;;;;;;;20.67;9.35;;;;;;;2.93;68.43;99883.03;5092571;28;20394;-49
2022/02/06 00:10:36;;;;;;;20.98;9.00;;;;;;;2.80;68.87;99875.41;5092611;28;20035;-48
2022/02/06 00:13:03;;;;;;;23.45;13.18;;;;;;;2.80;69.03;99880.59;5092602;28;20043;-48
2022/02/06 00:15:28;;;;;;;20.77;9.23;;;;;;;2.82;68.90;99880.50;5092459;28;20028;-49
2022/02/06 00:17:55;;;;;;;20.33;8.60;;;;;;;2.79;68.82;99872.94;5091191;28;20455;-49
2022/02/06 00:20:22;;;;;;;18.33;8.65;;;;;;;2.87;68.81;99873.16;5092442;28;20397;-49
2022/02/06 00:22:53;;;;;;;23.02;10.68;;;;;;;2.83;69.45;99874.34;5092343;28;20504;-48
2022/02/06 00:28:18;;;;;;;19.55;6.65;;;;;;;2.80;68.09;99862.47;5092571;28;20494;-49
2022/02/06 00:33:25;;;;;;;15.75;7.10;;;;;;;2.83;67.62;99861.38;5092047;28;20077;-49
2022/02/06 00:39:05;;;;;;;12.63;5.65;;;;;;;2.90;68.88;99869.53;5069603;28;20025;-48
2022/02/06 00:41:32;;;;;;;19.83;7.47;;;;;;;2.88;68.24;99872.22;5068904;28;20119;-48
2022/02/06 00:44:02;;;;;;;22.30;8.65;;;;;;;2.86;70.21;99871.53;5069638;28;20090;-49
2022/02/06 00:46:29;;;;;;;17.60;8.20;;;;;;;2.84;70.37;99860.44;5069648;28;20121;-49
2022/02/06 00:48:58;;;;;;;18.40;7.47;;;;;;;2.82;70.65;99864.09;5069559;28;20448;-48
2022/02/06 00:53:50;;;;;;;20.05;7.47;;;;;;;2.75;71.08;99861.97;5069519;28;20028;-49
2022/02/06 00:56:16;;;;;;;22.23;7.40;;;;;;;2.88;70.86;99863.59;5069483;28;20115;-48
2022/02/06 00:58:41;;;;;;;17.13;10.30;;;;;;;3.00;69.17;99865.25;5069413;28;20028;-49
2022/02/06 01:01:07;;;;;;;14.50;7.60;;;;;;;2.91;68.15;99865.97;5069372;28;20032;-48
2022/02/06 01:03:33;;;;;;;14.07;6.90;;;;;;;2.70;68.24;99869.31;5069441;28;20103;-49
2022/02/06 01:05:59;;;;;;;18.88;6.25;;;;;;;2.71;68.71;99867.53;5069446;28;20031;-48
2022/02/06 01:08:25;;;;;;;16.52;8.30;;;;;;;2.88;67.87;99864.44;5069321;28;20414;-48
2022/02/06 01:10:51;;;;;;;12.95;6.25;;;;;;;3.02;66.92;99863.34;5091641;28;20040;-48
2022/02/06 01:13:33;;;;;;;16.98;7.03;;;;;;;2.97;66.61;99861.09;5091838;28;20074;-48
2022/02/06 01:16:05;;;;;;;15.73;6.72;;;;;;;2.87;66.93;99859.38;5091799;28;20143;-48
2022/02/06 01:18:39;;;;;;;14.43;6.50;;;;;;;2.91;67.37;99856.41;5091752;28;20024;-48
2022/02/06 01:21:15;;;;;;;12.93;6.93;;;;;;;2.97;66.95;99858.50;5091848;28;20120;-49
2022/02/06 01:23:51;;;;;;;15.43;7.00;;;;;;;3.04;67.26;99852.84;5091750;28;20042;-48
2022/02/06 01:26:43;;;;;;;16.40;7.57;;;;;;;3.00;66.54;99855.69;5091717;28;20115;-48
2022/02/06 01:29:56;;;;;;;17.77;8.07;;;;;;;2.94;66.75;99863.16;5091312;28;20083;-48
2022/02/06 01:34:42;;;;;;;22.02;7.43;;;;;;;2.94;66.71;99850.19;5091433;28;20044;-48
2022/02/06 01:37:17;;;;;;;10.07;7.00;;;;;;;2.88;66.58;99854.06;5091604;28;20028;-49
2022/02/06 01:43:04;;;;;;;16.88;8.25;;;;;;;2.62;67.29;99845.78;5091594;28;20031;-46
2022/02/06 02:07:15;;;;;;;13.38;6.20;;;;;;;2.34;67.44;99849.69;5094992;28;20451;-48
2022/02/06 02:10:42;;;;;;;15.75;7.60;;;;;;;2.37;67.73;99839.91;5094774;28;20040;-48
2022/02/06 02:15:13;;;;;;;12.93;7.10;;;;;;;2.27;67.57;99836.38;5094809;28;20116;-48
2022/02/06 02:18:49;;;;;;;18.65;7.18;;;;;;;2.18;68.27;99840.50;5094713;28;20040;-48
2022/02/06 02:20:47;;;;;;;14.88;7.97;;;;;;;2.19;68.34;99836.97;5090340;28;20028;-46
2022/02/06 02:31:10;;;;;;;16.65;7.85;;;;;;;2.59;67.26;99826.06;5094571;28;20032;-46
2022/02/06 02:49:42;;;;;;;15.10;6.72;;;;;;;2.48;67.27;99799.41;5094217;28;20036;-47
2022/02/06 02:52:16;;;;;;;14.13;7.25;;;;;;;2.55;66.72;99801.34;5094143;28;20141;-46
2022/02/06 02:54:47;;;;;;;15.60;6.88;;;;;;;2.65;66.47;99798.03;5094111;28;20044;-47
2022/02/06 02:57:26;;;;;;;14.55;7.75;;;;;;;2.62;66.32;99795.69;5094053;28;20402;-47
2022/02/06 03:00:07;;;;;;;17.83;7.05;;;;;;;2.60;66.75;99795.81;5094030;28;20028;-47
2022/02/06 03:02:33;;;;;;;19.75;7.45;;;;;;;2.54;66.37;99797.13;5093946;28;20028;-47
2022/02/06 03:05:01;;;;;;;13.95;6.50;;;;;;;2.37;66.86;99795.88;5092938;28;20038;-47
2022/02/06 03:07:27;;;;;;;19.25;8.00;;;;;;;2.36;66.75;99783.03;5093779;28;20060;-47
2022/02/06 03:09:53;;;;;;;15.73;6.97;;;;;;;2.47;67.21;99783.00;5092518;28;20024;-47
2022/02/06 03:12:24;;;;;;;20.38;6.57;;;;;;;2.55;66.57;99772.03;5093767;28;20053;-47
2022/02/06 03:14:58;;;;;;;14.70;7.07;;;;;;;2.60;66.38;99769.91;5093707;28;20016;-45
2022/02/06 03:17:36;;;;;;;14.25;6.65;;;;;;;2.57;66.11;99770.97;5093668;28;20032;-48
2022/02/06 03:20:09;;;;;;;16.65;6.90;;;;;;;2.33;67.02;99778.09;5093644;28;20157;-47
2022/02/06 03:22:48;;;;;;;14.50;7.13;;;;;;;2.13;67.30;99777.03;5093559;28;20500;-47
2022/02/06 03:25:19;;;;;;;17.98;8.20;;;;;;;2.10;67.75;99777.31;5093499;28;20554;-48
2022/02/06 03:27:45;;;;;;;18.65;7.30;;;;;;;2.12;67.60;99781.41;5093417;28;20493;-47
2022/02/06 03:30:12;;;;;;;14.93;7.13;;;;;;;2.13;67.98;99780.47;5093369;28;20508;-47
2022/02/06 03:32:38;;;;;;;13.68;6.57;;;;;;;2.10;67.62;99777.31;5093121;28;20036;-47
2022/02/06 03:35:04;;;;;;;13.95;7.28;;;;;;;2.07;68.08;99778.34;5093311;28;20409;-47
2022/02/06 03:37:29;;;;;;;11.93;6.97;;;;;;;2.02;67.87;99779.66;5093149;28;20101;-47
2022/02/06 03:39:56;;;;;;;16.05;6.78;;;;;;;2.07;68.25;99782.69;5093216;28;20059;-47
2022/02/06 03:42:29;;;;;;;15.25;7.47;;;;;;;2.09;68.31;99781.63;5093122;28;20028;-46
2022/02/06 03:45:00;;;;;;;15.15;7.82;;;;;;;2.04;67.36;99788.94;5093188;28;20028;-45
2022/02/06 03:47:34;;;;;;;16.70;6.75;;;;;;;1.93;68.11;99788.94;5093055;28;20402;-46
2022/02/06 03:50:04;;;;;;;13.30;6.95;;;;;;;1.92;68.24;99784.72;5093066;28;20470;-46
2022/02/06 03:52:37;;;;;;;13.32;7.00;;;;;;;1.95;68.17;99787.06;5091645;28;20032;-46
2022/02/06 03:55:04;;;;;;;16.77;6.53;;;;;;;2.08;68.22;99784.38;5092956;28;20028;-46
2022/02/06 03:57:29;;;;;;;13.45;6.50;;;;;;;2.22;67.84;99785.88;5091545;28;20023;-46
2022/02/06 03:59:56;;;;;;;13.05;6.05;;;;;;;2.27;67.16;99788.94;5091487;28;20468;-47
2022/02/06 04:02:22;;;;;;;11.20;5.53;;;;;;;2.36;67.44;99781.25;5092730;28;20016;-47
2022/02/06 04:04:47;;;;;;;13.07;6.10;;;;;;;2.43;67.19;99785.97;5091432;28;20450;-47
2022/02/06 04:07:14;;;;;;;14.73;6.60;;;;;;;2.42;66.88;99792.09;5092850;28;20016;-46
2022/02/06 04:09:46;;;;;;;15.77;7.13;;;;;;;2.46;66.49;99791.72;5092584;28;20028;-47
2022/02/06 04:12:15;;;;;;;17.08;6.80;;;;;;;2.42;66.56;99799.88;5092620;28;20077;-48
2022/02/06 04:14:58;;;;;;;12.40;6.75;;;;;;;2.45;66.61;99791.84;5092545;28;20027;-46
2022/02/06 04:17:30;;;;;;;18.08;8.70;;;;;;;2.49;66.70;99791.47;5092572;28;20453;-46
2022/02/06 04:19:56;;;;;;;13.70;5.97;;;;;;;2.47;65.88;99792.53;5092555;28;20559;-47
2022/02/06 04:22:22;;;;;;;14.23;5.78;;;;;;;2.40;65.64;99793.03;5092417;28;20024;-47
2022/02/06 04:24:49;;;;;;;15.13;6.18;;;;;;;2.26;65.63;99789.88;5092395;28;20035;-47
2022/02/06 04:27:15;;;;;;;12.50;6.30;;;;;;;2.29;66.38;99794.81;5092274;28;20462;-46
2022/02/06 04:29:41;;;;;;;20.35;6.18;;;;;;;2.33;66.11;99798.81;5092334;28;20051;-46
2022/02/06 04:32:08;;;;;;;14.13;5.55;;;;;;;2.40;66.38;99792.22;5092273;28;20059;-47
2022/02/06 04:34:35;;;;;;;11.43;5.47;;;;;;;2.55;66.51;99803.94;5090655;28;20039;-48
2022/02/06 04:40:14;;;;;;;17.38;7.20;;;;;;;2.81;66.11;99808.84;5082841;28;20093;-47
2022/02/06 05:26:26;;;;;;;12.10;4.45;;;;;;;3.10;64.19;99788.34;5091710;28;20032;-48
2022/02/06 05:28:50;;;;;;;11.00;5.78;;;;;;;3.30;64.86;99791.91;5094326;28;20059;-48
2022/02/06 05:33:54;;;;;;;13.80;6.18;;;;;;;3.11;64.89;99789.97;5095441;28;20541;-47
2022/02/06 05:36:19;;;;;;;13.35;6.25;;;;;;;3.05;65.80;99802.63;5095572;28;20047;-47
2022/02/06 05:38:45;;;;;;;13.82;5.60;;;;;;;2.96;64.91;99796.44;5095552;28;20066;-47
2022/02/06 05:41:11;;;;;;;16.55;6.38;;;;;;;2.99;65.90;99785.78;5095475;28;20018;-48
2022/02/06 05:43:37;;;;;;;14.60;6.80;;;;;;;2.97;65.47;99785.91;5095470;28;20024;-47
2022/02/06 05:46:04;;;;;;;11.68;6.10;;;;;;;2.89;65.29;99800.44;5095445;28;20449;-48
2022/02/06 05:48:29;;;;;;;10.93;5.30;;;;;;;2.75;65.70;99806.72;5093950;28;20054;-48
2022/02/06 05:50:55;;;;;;;13.55;5.80;;;;;;;2.55;66.21;99803.94;5093950;28;20056;-48
2022/02/06 05:53:21;;;;;;;10.82;5.45;;;;;;;2.45;66.02;99808.22;5093939;28;20494;-48
2022/02/06 05:55:47;;;;;;;15.93;5.32;;;;;;;2.37;66.36;99803.66;5095293;28;20020;-47
2022/02/06 05:58:13;;;;;;;16.45;6.30;;;;;;;2.26;66.93;99801.06;5095146;28;20043;-48
2022/02/06 06:00:39;;;;;;;12.52;6.25;;;;;;;2.23;67.48;99792.69;5095079;28;20036;-48
2022/02/06 06:03:06;;;;;;;14.63;5.97;;;;;;;2.44;67.81;99803.97;5095123;28;20035;-47
2022/02/06 06:05:33;;;;;;;12.20;5.47;;;;;;;2.74;68.70;99792.13;5095013;28;20443;-47
2022/02/06 06:07:58;;;;;;;9.57;5.55;;;;;;;3.06;67.11;99802.50;5094844;28;20485;-47
2022/02/06 06:10:24;;;;;;;16.75;7.00;;;;;;;2.94;66.21;99803.50;5094963;28;20032;-47
2022/02/06 06:12:50;;;;;;;10.48;5.00;;;;;;;2.82;66.07;99804.47;5094996;28;20052;-47
2022/02/06 06:15:16;;;;;;;11.90;5.13;;;;;;;2.80;65.23;99810.59;5093537;28;20566;-48
2022/02/06 06:17:41;;;;;;;14.30;6.25;;;;;;;2.66;65.10;99810.88;5094880;28;20094;-48
2022/02/06 06:20:15;;;;;;;10.60;5.50;;;;;;;2.54;65.75;99802.31;5093421;28;20490;-49
2022/02/06 06:22:41;;;;;;;13.38;5.38;;;;;;;2.77;65.49;99802.25;5094814;28;20022;-50
2022/02/06 06:25:07;;;;;;;11.13;5.75;;;;;;;2.73;64.80;99806.03;5094703;28;20025;-50
2022/02/06 06:27:34;;;;;;;14.10;5.60;;;;;;;2.74;65.60;99816.28;5093277;28;20069;-50
2022/02/06 06:29:59;;;;;;;11.20;6.63;;;;;;;2.93;65.11;99817.41;5094651;28;20039;-48
2022/02/06 06:32:25;;;;;;;22.05;14.50;;;;;;;2.95;64.95;99808.53;5094598;28;20017;-49
2022/02/06 06:34:53;;;;;;;12.68;5.50;;;;;;;2.90;64.49;99820.25;5094582;28;20063;-48
2022/02/06 06:37:19;;;;;;;12.15;4.95;;;;;;;2.82;64.29;99812.25;5094470;28;20523;-49
2022/02/06 06:39:47;;;;;;;17.27;6.03;;;;;;;2.83;64.51;99811.31;5091817;28;20387;-49
2022/02/06 06:42:14;;;;;;;15.82;5.53;;;;;;;2.91;64.54;99798.56;5094385;28;20034;-48
2022/02/06 06:44:41;;;;;;;17.08;7.07;;;;;;;3.05;64.80;99795.66;5094312;28;20099;-50
2022/02/06 06:47:08;;;;;;;17.55;6.18;;;;;;;3.17;63.53;99802.44;5094169;28;20020;-48
2022/02/06 06:49:34;;;;;;;10.07;5.10;;;;;;;2.95;64.16;99805.13;5094271;28;20024;-48
2022/02/06 06:52:01;;;;;;;10.68;5.05;;;;;;;3.00;64.42;99803.81;5094207;28;20054;-48
2022/02/06 06:54:35;;;;;;;13.57;5.43;;;;;;;3.22;65.01;99807.28;5092796;28;20517;-48
2022/02/06 06:57:08;;;;;;;13.68;4.97;;;;;;;3.48;64.46;99801.69;5094143;28;20035;-49
2022/02/06 07:02:27;;;;;;;12.60;5.35;;;;;;;3.21;62.91;99800.44;5093941;28;20033;-48
2022/02/06 07:05:03;;;;;;;11.50;5.25;;;;;;;3.21;63.74;99792.66;5093975;28;20032;-48
2022/02/06 07:07:31;;;;;;;14.05;6.13;;;;;;;3.30;63.92;99785.88;5093833;28;20081;-47
2022/02/06 07:09:56;;;;;;;11.32;5.82;;;;;;;3.42;63.33;99777.09;5093865;28;20088;-48
2022/02/06 07:12:22;;;;;;;10.70;5.68;;;;;;;3.61;63.29;99781.56;5093712;28;20020;-48
2022/02/06 07:14:49;;;;;;;11.40;5.00;;;;;;;3.73;62.43;99784.91;5092410;28;20031;-48
2022/02/06 07:17:16;;;;;;;10.80;5.70;;;;;;;3.80;62.15;99781.69;5093609;28;20111;-48
2022/02/06 07:19:43;;;;;;;15.40;6.88;;;;;;;3.82;62.28;99780.72;5092354;28;20035;-48
2022/02/06 07:22:14;;;;;;;13.63;6.50;;;;;;;3.81;62.27;99779.91;5093517;28;20028;-48
2022/02/06 07:24:41;;;;;;;14.70;5.75;;;;;;;3.59;62.59;99784.28;5092395;28;20032;-49
2022/02/06 07:27:19;;;;;;;12.43;8.73;;;;;;;3.78;63.23;99791.38;5092053;28;20077;-48
2022/02/06 07:29:45;;;;;;;15.02;5.60;;;;;;;4.23;62.26;99786.75;5093499;28;20028;-48
2022/02/06 07:32:11;;;;;;;12.68;5.43;;;;;;;4.48;61.99;99791.47;5093383;28;20023;-49
2022/02/06 07:34:37;;;;;;;10.40;4.72;;;;;;;4.34;60.95;99789.25;5093090;28;20048;-48
2022/02/06 07:37:04;;;;;;;16.58;4.90;;;;;;;4.20;60.95;99804.25;5093238;28;20374;-48
2022/02/06 07:39:29;;;;;;;8.57;4.70;;;;;;;4.18;61.30;99797.53;5091898;28;20154;-50
2022/02/06 07:41:55;;;;;;;13.15;4.75;;;;;;;3.98;61.29;99796.63;5093218;28;20557;-51
2022/02/06 07:44:21;;;;;;;13.20;5.85;;;;;;;3.95;62.16;99804.69;5093165;28;20103;-50
2022/02/06 07:46:48;;;;;;;14.05;4.95;;;;;;;4.31;62.06;99790.34;5091812;28;20024;-50
2022/02/06 07:49:15;;;;;;;12.50;4.97;;;;;;;4.33;61.37;99778.03;5093000;28;20402;-49
2022/02/06 07:51:42;;;;;;;11.50;5.80;;;;;;;4.50;61.46;99762.75;5092566;28;20077;-49
2022/02/06 07:54:08;;;;;;;11.50;5.13;;;;;;;4.78;60.91;99758.53;5091614;28;20024;-48
2022/02/06 07:56:34;;;;;;;14.55;5.40;;;;;;;4.93;59.73;99759.75;5092977;28;20393;-49
2022/02/06 07:59:00;;;;;;;8.85;5.10;;;;;;;4.86;58.96;99766.47;5091607;28;20043;-48
2022/02/06 08:01:26;;;;;;;16.58;5.15;;;;;;;4.69;59.63;99762.78;5092837;28;20016;-49
2022/02/06 08:03:53;;;;;;;9.27;4.53;;;;;;;4.83;59.82;99758.94;5092807;28;20024;-48
2022/02/06 08:06:19;;;;;;;13.68;5.55;;;;;;;4.99;59.63;99772.22;5092682;28;20116;-48
2022/02/06 08:08:45;;;;;;;14.52;4.80;;;;;;;5.19;59.34;99772.19;5092614;28;20042;-49
2022/02/06 08:11:15;;;;;;;8.57;4.95;;;;;;;5.20;58.75;99763.44;5092644;28;20048;-49
2022/02/06 08:13:51;;;;;;;9.30;4.68;;;;;;;5.12;59.24;99771.94;5092593;28;20047;-48
2022/02/06 08:16:18;;;;;;;11.77;5.05;;;;;;;5.06;58.38;99787.28;5092621;28;20028;-48
2022/02/06 08:18:43;;;;;;;12.00;5.72;;;;;;;5.06;60.11;99785.50;5092545;28;20024;-49
2022/02/06 08:21:11;;;;;;;12.30;6.10;;;;;;;5.38;59.66;99790.41;5092399;28;20736;-48
2022/02/06 08:23:38;;;;;;;13.07;6.45;;;;;;;5.84;59.58;99794.97;5092571;28;20020;-49
2022/02/06 08:26:05;;;;;;;14.30;7.03;;;;;;;6.35;58.12;99799.69;5092342;28;20035;-48
2022/02/06 08:28:31;;;;;;;12.68;7.03;;;;;;;6.65;56.83;99794.31;5092277;28;20019;-49
2022/02/06 08:30:58;;;;;;;21.42;9.05;;;;;;;6.76;55.84;99783.66;5092315;28;20099;-48
2022/02/06 08:33:25;;;;;;;12.48;7.15;;;;;;;6.81;56.70;99786.66;5091951;28;20433;-48
2022/02/06 08:35:54;;;;;;;19.05;9.07;;;;;;;6.97;56.62;99789.41;5092229;28;20024;-49
2022/02/06 08:38:19;;;;;;;17.13;7.80;;;;;;;7.12;56.38;99791.47;5092188;28;20028;-48
2022/02/06 08:40:45;;;;;;;13.95;7.65;;;;;;;7.25;56.29;99791.09;5092150;28;20020;-49
2022/02/06 08:43:11;;;;;;;16.33;8.02;;;;;;;7.33;54.95;99785.94;5092151;28;20387;-48
2022/02/06 08:45:38;;;;;;;17.40;8.32;;;;;;;7.31;54.31;99793.94;5092119;28;20039;-48
2022/02/06 08:48:04;;;;;;;15.55;7.32;;;;;;;7.32;55.29;99795.53;5091935;28;20077;-48
2022/02/06 08:50:31;;;;;;;14.48;7.93;;;;;;;7.27;54.92;99792.59;5092032;28;20393;-49
2022/02/06 08:52:59;;;;;;;11.32;6.82;;;;;;;7.23;54.87;99788.63;5092026;28;20405;-48
2022/02/06 08:55:27;;;;;;;12.75;6.88;;;;;;;7.28;54.19;99775.94;5092000;28;20043;-48
2022/02/06 08:57:53;;;;;;;14.48;8.40;;;;;;;7.05;54.33;99777.41;5091978;28;20073;-49
2022/02/06 09:00:21;;;;;;;19.42;7.50;;;;;;;6.91;54.95;99799.63;5091880;28;20020;-48
2022/02/06 09:02:48;;;;;;;15.50;7.28;;;;;;;7.12;55.41;99794.94;5091098;28;20024;-49
2022/02/06 09:05:14;;;;;;;17.13;8.52;;;;;;;7.54;54.86;99788.19;5090526;28;20436;-49
2022/02/06 09:07:44;;;;;;;17.95;7.97;;;;;;;7.75;53.90;99793.91;5091782;28;20120;-48
2022/02/06 09:10:15;;;;;;;13.80;8.43;;;;;;;7.90;54.45;99801.97;5073688;28;20107;-48
2022/02/06 09:12:54;;;;;;;12.25;7.03;;;;;;;8.44;53.34;99808.78;5090443;28;20024;-48
2022/02/06 09:15:22;;;;;;;15.80;7.60;;;;;;;9.19;52.34;99804.34;5091772;28;20059;-50
2022/02/06 09:17:49;;;;;;;11.48;7.00;;;;;;;9.52;50.26;99799.06;5091789;28;20031;-49
2022/02/06 09:20:16;;;;;;;15.70;6.63;;;;;;;9.26;50.93;99799.25;5091714;28;20417;-49
2022/02/06 09:22:43;;;;;;;15.77;8.00;;;;;;;9.19;50.40;99804.34;5091731;28;20038;-49
2022/02/06 09:25:11;;;;;;;17.30;7.03;;;;;;;8.66;50.55;99800.34;5091700;28;20032;-49
2022/02/06 09:27:38;;;;;;;10.80;6.50;;;;;;;8.54;51.49;99799.81;5091616;28;20028;-48
2022/02/06 09:30:06;;;;;;;14.20;7.95;;;;;;;8.89;51.57;99799.72;5091638;28;20385;-48
2022/02/06 09:37:25;;;;;;;11.75;6.68;;;;;;;9.87;49.81;99785.72;5091607;28;20059;-49
2022/02/06 09:39:52;;;;;;;9.88;6.75;;;;;;;10.02;48.28;99783.22;5090250;28;20062;-49
2022/02/06 09:42:20;;;;;;;17.00;7.47;;;;;;;9.98;47.81;99788.81;5091461;28;20390;-49
2022/02/06 09:44:49;;;;;;;13.77;6.82;;;;;;;9.82;48.16;99801.13;5091505;28;20027;-49
2022/02/06 09:47:46;;;;;;;10.88;7.25;;;;;;;9.88;48.38;99803.91;5091333;28;20021;-51
2022/02/06 09:50:12;;;;;;;13.82;5.70;;;;;;;10.14;47.93;99801.06;5090605;28;20398;-49
2022/02/06 09:52:39;;;;;;;10.98;5.95;;;;;;;10.35;47.20;99794.44;5091466;28;20532;-49
2022/02/06 09:55:15;;;;;;;15.88;6.68;;;;;;;10.54;46.89;99793.16;5091420;28;20064;-49
2022/02/06 09:57:52;;;;;;;9.70;5.88;;;;;;;10.82;47.24;99796.13;5091405;28;20454;-48
2022/02/06 10:00:21;;;;;;;10.18;6.25;;;;;;;11.40;46.57;99791.25;5091475;28;20024;-50
2022/02/06 10:02:51;;;;;;;11.27;6.57;;;;;;;11.74;46.08;99782.84;5091391;28;20112;-50
2022/02/06 10:05:18;;;;;;;14.85;6.35;;;;;;;12.00;45.49;99781.63;5091350;28;20032;-49
2022/02/06 10:08:13;;;;;;;11.88;6.03;;;;;;;12.55;45.60;99771.53;5091311;28;20091;-50
2022/02/06 10:10:55;;;;;;;12.15;6.35;;;;;;;12.84;43.59;99760.09;5091306;28;20032;-50
2022/02/06 10:13:21;;;;;;;17.75;7.78;;;;;;;13.15;43.09;99751.84;5091905;28;20504;-50
2022/02/06 10:15:46;;;;;;;13.82;5.60;;;;;;;13.58;42.50;99758.84;5094891;28;20091;-50
2022/02/06 10:18:12;;;;;;;12.38;6.13;;;;;;;14.23;41.42;99753.31;5094825;28;20150;-49
2022/02/06 10:20:46;;;;;;;18.23;13.70;;;;;;;15.00;40.25;99759.19;5094853;28;20397;-49
2022/02/06 10:23:30;;;;;;;13.57;6.30;;;;;;;15.44;39.69;99766.50;5094859;28;20465;-50
2022/02/06 10:26:06;;;;;;;11.70;7.68;;;;;;;15.50;39.00;99756.94;5094693;28;20024;-50
2022/02/06 10:28:36;;;;;;;12.13;7.57;;;;;;;14.97;39.60;99755.94;5094668;28;20077;-50
2022/02/06 10:31:04;;;;;;;15.82;7.43;;;;;;;14.81;39.62;99766.91;5094639;28;20028;-50
2022/02/06 10:34:18;;;;;;;14.00;9.98;;;;;;;14.36;40.71;99759.44;5094298;28;20044;-49
2022/02/06 10:36:44;;;;;;;16.63;7.57;;;;;;;14.26;40.69;99756.34;5032008;28;20152;-50
2022/02/06 10:39:10;;;;;;;17.38;8.63;;;;;;;14.08;40.98;99762.16;5032026;28;20511;-50
2022/02/06 10:41:44;;;;;;;14.38;8.65;;;;;;;13.83;41.44;99758.41;5015440;28;20030;-49
2022/02/06 10:44:10;;;;;;;13.15;8.18;;;;;;;13.38;41.99;99746.38;5031954;28;20140;-49
2022/02/06 10:46:53;;;;;;;15.70;8.32;;;;;;;13.09;42.88;99731.50;5031933;28;20025;-50
2022/02/06 10:49:20;;;;;;;12.05;7.57;;;;;;;13.14;42.75;99718.59;5031912;28;20033;-50
2022/02/06 10:51:59;;;;;;;14.20;7.25;;;;;;;13.06;42.12;99704.72;5031777;28;20035;-50
2022/02/06 10:54:30;;;;;;;12.52;6.22;;;;;;;13.53;40.71;99700.63;5031879;28;20037;-49
2022/02/06 10:57:14;;;;;;;9.73;5.40;;;;;;;13.74;40.12;99687.34;5031715;28;20030;-49
2022/02/06 10:59:42;;;;;;;12.77;5.95;;;;;;;14.01;39.63;99676.88;5031789;28;20034;-50
2022/02/06 11:02:28;;;;;;;14.00;6.63;;;;;;;13.93;39.67;99672.59;5031641;28;20096;-50
2022/02/06 11:04:56;;;;;;;12.20;5.40;;;;;;;14.10;39.73;99674.88;5031632;28;20306;-50
2022/02/06 11:07:21;;;;;;;14.63;5.57;;;;;;;14.33;39.77;99672.69;5031457;28;20041;-50
2022/02/06 11:09:47;;;;;;;7.32;3.88;;;;;;;14.55;38.92;99662.78;5044855;28;20040;-50
2022/02/06 11:12:19;;;;;;;10.90;5.35;;;;;;;14.63;39.01;99648.59;5093836;28;20016;-51
2022/02/06 11:14:48;;;;;;;8.27;3.10;;;;;;;15.04;37.98;99658.13;5093818;28;20020;-50
2022/02/06 11:17:27;;;;;;;8.80;3.33;;;;;;;15.16;37.35;99651.19;5093724;28;20016;-50
2022/02/06 11:20:06;;;;;;;6.13;2.85;;;;;;;15.30;37.79;99641.41;5093731;28;20024;-50
2022/02/06 11:22:33;;;;;;;10.52;5.43;;;;;;;15.33;37.51;99646.28;5093693;28;20016;-50
2022/02/06 11:25:01;;;;;;;10.40;5.80;;;;;;;15.36;37.69;99651.16;5092884;28;20032;-50
2022/02/06 11:27:28;;;;;;;12.40;6.00;;;;;;;15.26;38.85;99645.47;5093537;28;20020;-50
2022/02/06 11:29:56;;;;;;;11.27;5.50;;;;;;;15.32;39.27;99644.66;5093493;28;20024;-51
2022/02/06 11:32:24;;;;;;;9.90;5.90;;;;;;;15.63;38.83;99642.31;5093390;28;20016;-49
2022/02/06 11:34:50;;;;;;;13.95;5.68;;;;;;;15.62;38.52;99633.56;5091782;28;20048;-50
2022/02/06 11:43:48;;;;;;;11.90;5.55;;;;;;;15.27;39.65;99625.13;5093501;28;20116;-50
2022/02/06 11:46:37;;;;;;;8.00;4.40;;;;;;;15.25;39.70;99628.00;5070237;28;20387;-50
2022/02/06 11:49:20;;;;;;;9.60;5.13;;;;;;;15.00;40.19;99622.53;5093121;28;20027;-50
2022/02/06 11:52:04;;;;;;;10.70;4.63;;;;;;;15.05;39.91;99621.91;5091687;28;20511;-49
2022/02/06 11:54:34;;;;;;;10.07;4.15;;;;;;;14.97;39.86;99615.84;5093090;28;20413;-49
2022/02/06 11:57:20;;;;;;;9.93;4.63;;;;;;;14.96;40.02;99616.84;5092978;28;20509;-50
2022/02/06 12:00:05;;;;;;;9.18;4.82;;;;;;;14.88;40.45;99598.56;5092960;28;20024;-49
2022/02/06 12:02:32;;;;;;;12.40;5.03;;;;;;;14.76;40.60;99601.00;5091640;28;20073;-49
2022/02/06 12:05:28;;;;;;;13.38;5.22;;;;;;;14.70;40.68;99603.66;5092842;28;20042;-50
2022/02/06 12:08:00;;;;;;;8.60;5.15;;;;;;;14.48;41.08;99603.03;5089523;28;20047;-49
2022/02/06 12:10:34;;;;;;;8.93;4.55;;;;;;;14.45;41.46;99596.34;5091338;28;20532;-50
2022/02/06 12:13:33;;;;;;;12.52;5.13;;;;;;;14.52;41.19;99591.84;5091435;28;20055;-50
2022/02/06 12:16:02;;;;;;;11.30;5.60;;;;;;;14.64;41.28;99586.81;5092615;28;20020;-50
2022/02/06 12:18:33;;;;;;;12.13;5.63;;;;;;;15.05;40.57;99585.75;5091260;28;20173;-50
2022/02/06 12:21:19;;;;;;;13.93;5.53;;;;;;;15.45;40.06;99582.13;5092476;28;20043;-49
2022/02/06 12:23:57;;;;;;;8.85;4.95;;;;;;;15.66;39.67;99579.19;5092530;28;20058;-50
2022/02/06 12:26:27;;;;;;;9.43;5.00;;;;;;;15.44;39.57;99586.63;5092443;28;20024;-49
2022/02/06 12:28:59;;;;;;;12.70;5.68;;;;;;;15.22;39.79;99595.84;5092325;28;20051;-50
2022/02/06 12:31:28;;;;;;;8.93;4.38;;;;;;;15.16;40.08;99589.56;5092417;28;20073;-50
2022/02/06 12:33:59;;;;;;;11.40;4.80;;;;;;;15.04;40.02;99599.97;5092114;28;20516;-49
2022/02/06 12:39:24;;;;;;;13.75;5.38;;;;;;;14.72;40.36;99599.78;5092245;28;20039;-50
2022/02/06 12:41:50;;;;;;;8.63;3.22;;;;;;;14.59;40.15;99594.53;5092176;28;20035;-50
2022/02/06 12:44:17;;;;;;;7.38;3.65;;;;;;;14.54;39.93;99592.47;5090821;28;20024;-49
2022/02/06 12:46:55;;;;;;;16.92;4.45;;;;;;;14.54;39.94;99587.19;5092135;28;20023;-50
2022/02/06 12:49:29;;;;;;;6.72;2.88;;;;;;;14.55;39.03;99594.09;5092096;28;20020;-50
2022/02/06 12:51:59;;;;;;;6.72;2.60;;;;;;;14.49;39.45;99594.09;5092121;28;20456;-50
2022/02/06 12:54:26;;;;;;;9.13;2.60;;;;;;;14.67;38.75;99582.94;5092057;28;20029;-50
2022/02/06 12:57:00;;;;;;;4.43;1.95;;;;;;;14.71;38.26;99586.81;5091920;28;20035;-50
2022/02/06 12:59:30;;;;;;;5.10;1.33;;;;;;;14.42;37.25;99593.28;5091968;28;20020;-49
2022/02/06 13:01:55;;;;;;;8.63;2.38;;;;;;;14.09;37.72;99586.97;5091954;28;20028;-50
2022/02/06 13:04:29;;;;;;;4.70;1.73;;;;;;;13.86;38.21;99586.50;5090644;28;20401;-50
2022/02/06 13:07:00;;;;;;;5.85;1.52;;;;;;;13.62;37.97;99572.81;5091914;28;20028;-50
2022/02/06 13:09:31;;;;;;;8.18;1.98;;;;;;;13.43;38.90;99565.69;5091902;28;20027;-50
2022/02/06 13:17:30;;;;;;;5.32;1.85;;;;;;;12.99;38.34;99579.00;5091795;28;20110;-50
2022/02/06 13:38:53;;;;;;;7.72;1.98;;;;;;;12.86;40.62;99576.31;5069195;28;20044;-49
2022/02/06 13:41:24;;;;;;;7.47;4.13;;;;;;;12.90;39.99;99579.38;5069238;28;20045;-49
2022/02/06 13:43:53;;;;;;;6.07;2.33;;;;;;;12.76;39.69;99567.94;5069132;28;20028;-50
2022/02/06 13:46:27;;;;;;;7.30;1.63;;;;;;;12.78;39.57;99560.66;5068997;28;20180;-50
2022/02/06 13:48:54;;;;;;;3.25;1.63;;;;;;;12.79;39.70;99557.81;5070470;28;20490;-50
2022/02/06 13:51:39;;;;;;;5.32;3.28;;;;;;;12.90;39.71;99556.47;5072840;28;20123;-50
2022/02/06 13:54:07;;;;;;;9.50;4.72;;;;;;;12.96;39.80;99568.88;5072916;28;20094;-50
2022/02/06 13:56:35;;;;;;;4.15;2.20;;;;;;;13.15;38.98;99571.81;5072731;28;20036;-49
2022/02/06 13:59:10;;;;;;;6.55;1.17;;;;;;;13.20;38.50;99558.88;5055923;28;20156;-49
2022/02/06 14:01:51;;;;;;;6.70;1.42;;;;;;;13.23;38.57;99562.91;5072747;28;20024;-50
2022/02/06 14:04:30;;;;;;;8.20;2.05;;;;;;;13.31;39.25;99553.03;5089608;28;20059;-50
2022/02/06 14:07:16;;;;;;;4.35;1.50;;;;;;;13.47;38.24;99551.09;5095122;28;20020;-49
2022/02/06 14:12:15;;;;;;;10.85;1.75;;;;;;;12.96;38.93;99536.44;5094976;28;20032;-49
2022/02/06 14:14:59;;;;;;;6.57;2.05;;;;;;;12.90;39.33;99516.94;5094998;28;20386;-50
2022/02/06 14:17:27;;;;;;;3.58;1.35;;;;;;;12.86;39.29;99525.41;5094953;28;20024;-49
2022/02/06 14:19:56;;;;;;;3.88;1.15;;;;;;;12.67;39.45;99513.78;5094882;28;20024;-50
2022/02/06 14:22:29;;;;;;;6.47;1.27;;;;;;;12.48;39.90;99508.19;5094796;28;20413;-49
2022/02/06 14:24:57;;;;;;;2.20;1.00;;;;;;;12.42;39.93;99506.31;5093483;28;20028;-49